<?xml version="1.0" encoding="UTF-8" standalone="no" ?>
<gpx xmlns="http://www.topografix.com/GPX/1/1" xmlns:xsi="http://www.w3.org/2001/XMLSchema-instance" xsi:schemaLocation="http://www.topografix.com/GPX/1/1 http://www.topografix.com/GPX/1/1/gpx.xsd" version="1.1" creator="VisuGPX - https://www.visugpx.com">
  <metadata>
    <name>Sortie vélo dans l'après-midi</name>
  </metadata>
  <trk>
    <name><![CDATA[Sortie vélo dans l'après-midi_1]]></name>
    <trkseg>
      <trkpt lat="47.57869" lon="-3.05206">
        <ele>8.2</ele>
        <time>2024-05-07T11:53:45Z</time>
      </trkpt>
      <trkpt lat="47.57869" lon="-3.05206">
        <ele>10.8</ele>
        <time>2024-05-07T11:53:46Z</time>
      </trkpt>
      <trkpt lat="47.57869" lon="-3.05206">
        <ele>11.2</ele>
        <time>2024-05-07T11:53:47Z</time>
      </trkpt>
      <trkpt lat="47.57869" lon="-3.05206">
        <ele>11.2</ele>
        <time>2024-05-07T11:53:48Z</time>
      </trkpt>
      <trkpt lat="47.57869" lon="-3.05206">
        <ele>11.2</ele>
        <time>2024-05-07T11:53:49Z</time>
      </trkpt>
      <trkpt lat="47.57869" lon="-3.05206">
        <ele>11.2</ele>
        <time>2024-05-07T11:53:50Z</time>
      </trkpt>
      <trkpt lat="47.57869" lon="-3.05206">
        <ele>11</ele>
        <time>2024-05-07T11:53:51Z</time>
      </trkpt>
      <trkpt lat="47.57869" lon="-3.05206">
        <ele>11</ele>
        <time>2024-05-07T11:53:52Z</time>
      </trkpt>
      <trkpt lat="47.57869" lon="-3.05206">
        <ele>10.8</ele>
        <time>2024-05-07T11:53:53Z</time>
      </trkpt>
      <trkpt lat="47.57869" lon="-3.05206">
        <ele>10.6</ele>
        <time>2024-05-07T11:53:54Z</time>
      </trkpt>
      <trkpt lat="47.57869" lon="-3.05206">
        <ele>10.8</ele>
        <time>2024-05-07T11:53:55Z</time>
      </trkpt>
      <trkpt lat="47.57869" lon="-3.05206">
        <ele>11</ele>
        <time>2024-05-07T11:53:56Z</time>
      </trkpt>
      <trkpt lat="47.57869" lon="-3.05206">
        <ele>11</ele>
        <time>2024-05-07T11:53:57Z</time>
      </trkpt>
      <trkpt lat="47.57869" lon="-3.05206">
        <ele>11</ele>
        <time>2024-05-07T11:53:58Z</time>
      </trkpt>
      <trkpt lat="47.57869" lon="-3.05206">
        <ele>11</ele>
        <time>2024-05-07T11:53:59Z</time>
      </trkpt>
      <trkpt lat="47.57869" lon="-3.05205">
        <ele>11</ele>
        <time>2024-05-07T11:54:00Z</time>
      </trkpt>
      <trkpt lat="47.5787" lon="-3.05205">
        <ele>11</ele>
        <time>2024-05-07T11:54:01Z</time>
      </trkpt>
      <trkpt lat="47.5787" lon="-3.05204">
        <ele>11</ele>
        <time>2024-05-07T11:54:02Z</time>
      </trkpt>
      <trkpt lat="47.57871" lon="-3.05204">
        <ele>11</ele>
        <time>2024-05-07T11:54:03Z</time>
      </trkpt>
      <trkpt lat="47.57871" lon="-3.05204">
        <ele>11</ele>
        <time>2024-05-07T11:54:04Z</time>
      </trkpt>
      <trkpt lat="47.57871" lon="-3.05204">
        <ele>11</ele>
        <time>2024-05-07T11:54:05Z</time>
      </trkpt>
      <trkpt lat="47.57871" lon="-3.05204">
        <ele>11</ele>
        <time>2024-05-07T11:54:06Z</time>
      </trkpt>
      <trkpt lat="47.57871" lon="-3.05204">
        <ele>11</ele>
        <time>2024-05-07T11:54:07Z</time>
      </trkpt>
      <trkpt lat="47.57871" lon="-3.05203">
        <ele>11</ele>
        <time>2024-05-07T11:54:08Z</time>
      </trkpt>
      <trkpt lat="47.57871" lon="-3.05203">
        <ele>10.8</ele>
        <time>2024-05-07T11:54:09Z</time>
      </trkpt>
      <trkpt lat="47.57871" lon="-3.05203">
        <ele>10.8</ele>
        <time>2024-05-07T11:54:10Z</time>
      </trkpt>
      <trkpt lat="47.57872" lon="-3.05203">
        <ele>10.8</ele>
        <time>2024-05-07T11:54:11Z</time>
      </trkpt>
      <trkpt lat="47.57872" lon="-3.05203">
        <ele>10.8</ele>
        <time>2024-05-07T11:54:12Z</time>
      </trkpt>
      <trkpt lat="47.57872" lon="-3.05203">
        <ele>10.8</ele>
        <time>2024-05-07T11:54:13Z</time>
      </trkpt>
      <trkpt lat="47.57873" lon="-3.05203">
        <ele>10.8</ele>
        <time>2024-05-07T11:54:14Z</time>
      </trkpt>
      <trkpt lat="47.57873" lon="-3.05204">
        <ele>10.8</ele>
        <time>2024-05-07T11:54:15Z</time>
      </trkpt>
      <trkpt lat="47.57873" lon="-3.05204">
        <ele>10.8</ele>
        <time>2024-05-07T11:54:16Z</time>
      </trkpt>
      <trkpt lat="47.57873" lon="-3.05204">
        <ele>10.8</ele>
        <time>2024-05-07T11:54:17Z</time>
      </trkpt>
      <trkpt lat="47.57874" lon="-3.05204">
        <ele>10.8</ele>
        <time>2024-05-07T11:54:18Z</time>
      </trkpt>
      <trkpt lat="47.57874" lon="-3.05204">
        <ele>10.8</ele>
        <time>2024-05-07T11:54:19Z</time>
      </trkpt>
      <trkpt lat="47.57874" lon="-3.05204">
        <ele>10.8</ele>
        <time>2024-05-07T11:54:20Z</time>
      </trkpt>
      <trkpt lat="47.57874" lon="-3.05205">
        <ele>10.8</ele>
        <time>2024-05-07T11:54:21Z</time>
      </trkpt>
      <trkpt lat="47.57874" lon="-3.05206">
        <ele>10.8</ele>
        <time>2024-05-07T11:54:22Z</time>
      </trkpt>
      <trkpt lat="47.57874" lon="-3.05207">
        <ele>10.8</ele>
        <time>2024-05-07T11:54:23Z</time>
      </trkpt>
      <trkpt lat="47.57874" lon="-3.05207">
        <ele>10.8</ele>
        <time>2024-05-07T11:54:24Z</time>
      </trkpt>
      <trkpt lat="47.57874" lon="-3.05207">
        <ele>10.8</ele>
        <time>2024-05-07T11:54:25Z</time>
      </trkpt>
      <trkpt lat="47.57874" lon="-3.05207">
        <ele>10.8</ele>
        <time>2024-05-07T11:54:26Z</time>
      </trkpt>
      <trkpt lat="47.57874" lon="-3.05207">
        <ele>10.8</ele>
        <time>2024-05-07T11:54:27Z</time>
      </trkpt>
      <trkpt lat="47.57874" lon="-3.05207">
        <ele>10.8</ele>
        <time>2024-05-07T11:54:28Z</time>
      </trkpt>
      <trkpt lat="47.57874" lon="-3.05207">
        <ele>10.8</ele>
        <time>2024-05-07T11:54:29Z</time>
      </trkpt>
      <trkpt lat="47.57874" lon="-3.05207">
        <ele>11</ele>
        <time>2024-05-07T11:54:30Z</time>
      </trkpt>
      <trkpt lat="47.57874" lon="-3.05207">
        <ele>11</ele>
        <time>2024-05-07T11:54:31Z</time>
      </trkpt>
      <trkpt lat="47.57875" lon="-3.05207">
        <ele>11</ele>
        <time>2024-05-07T11:54:32Z</time>
      </trkpt>
      <trkpt lat="47.57875" lon="-3.05207">
        <ele>11</ele>
        <time>2024-05-07T11:54:33Z</time>
      </trkpt>
      <trkpt lat="47.57875" lon="-3.05207">
        <ele>11</ele>
        <time>2024-05-07T11:54:34Z</time>
      </trkpt>
      <trkpt lat="47.57875" lon="-3.05206">
        <ele>11</ele>
        <time>2024-05-07T11:54:35Z</time>
      </trkpt>
      <trkpt lat="47.57875" lon="-3.05206">
        <ele>11</ele>
        <time>2024-05-07T11:54:36Z</time>
      </trkpt>
      <trkpt lat="47.57876" lon="-3.05206">
        <ele>11</ele>
        <time>2024-05-07T11:54:37Z</time>
      </trkpt>
      <trkpt lat="47.57876" lon="-3.05206">
        <ele>11</ele>
        <time>2024-05-07T11:54:38Z</time>
      </trkpt>
      <trkpt lat="47.57876" lon="-3.05206">
        <ele>11</ele>
        <time>2024-05-07T11:54:39Z</time>
      </trkpt>
      <trkpt lat="47.57876" lon="-3.05206">
        <ele>11</ele>
        <time>2024-05-07T11:54:40Z</time>
      </trkpt>
      <trkpt lat="47.57876" lon="-3.05206">
        <ele>11</ele>
        <time>2024-05-07T11:54:41Z</time>
      </trkpt>
      <trkpt lat="47.57876" lon="-3.05206">
        <ele>11</ele>
        <time>2024-05-07T11:54:42Z</time>
      </trkpt>
      <trkpt lat="47.57876" lon="-3.05206">
        <ele>11</ele>
        <time>2024-05-07T11:54:43Z</time>
      </trkpt>
      <trkpt lat="47.57876" lon="-3.05206">
        <ele>11</ele>
        <time>2024-05-07T11:54:44Z</time>
      </trkpt>
      <trkpt lat="47.57876" lon="-3.05206">
        <ele>11</ele>
        <time>2024-05-07T11:54:45Z</time>
      </trkpt>
      <trkpt lat="47.57876" lon="-3.05206">
        <ele>11</ele>
        <time>2024-05-07T11:54:46Z</time>
      </trkpt>
      <trkpt lat="47.57876" lon="-3.05206">
        <ele>11</ele>
        <time>2024-05-07T11:54:47Z</time>
      </trkpt>
      <trkpt lat="47.57876" lon="-3.05206">
        <ele>11</ele>
        <time>2024-05-07T11:54:48Z</time>
      </trkpt>
      <trkpt lat="47.57876" lon="-3.05206">
        <ele>11</ele>
        <time>2024-05-07T11:54:49Z</time>
      </trkpt>
      <trkpt lat="47.57876" lon="-3.05206">
        <ele>11</ele>
        <time>2024-05-07T11:54:50Z</time>
      </trkpt>
      <trkpt lat="47.57876" lon="-3.05206">
        <ele>11</ele>
        <time>2024-05-07T11:54:51Z</time>
      </trkpt>
      <trkpt lat="47.57876" lon="-3.05206">
        <ele>11</ele>
        <time>2024-05-07T11:54:52Z</time>
      </trkpt>
      <trkpt lat="47.57876" lon="-3.05206">
        <ele>11</ele>
        <time>2024-05-07T11:54:53Z</time>
      </trkpt>
      <trkpt lat="47.57876" lon="-3.05206">
        <ele>11</ele>
        <time>2024-05-07T11:54:54Z</time>
      </trkpt>
      <trkpt lat="47.57876" lon="-3.05205">
        <ele>11</ele>
        <time>2024-05-07T11:54:55Z</time>
      </trkpt>
      <trkpt lat="47.57876" lon="-3.05205">
        <ele>11</ele>
        <time>2024-05-07T11:54:56Z</time>
      </trkpt>
      <trkpt lat="47.57876" lon="-3.05205">
        <ele>11</ele>
        <time>2024-05-07T11:54:57Z</time>
      </trkpt>
      <trkpt lat="47.57876" lon="-3.05205">
        <ele>10.8</ele>
        <time>2024-05-07T11:54:58Z</time>
      </trkpt>
      <trkpt lat="47.57876" lon="-3.05205">
        <ele>10.8</ele>
        <time>2024-05-07T11:54:59Z</time>
      </trkpt>
      <trkpt lat="47.57876" lon="-3.05205">
        <ele>10.8</ele>
        <time>2024-05-07T11:55:00Z</time>
      </trkpt>
      <trkpt lat="47.57876" lon="-3.05205">
        <ele>10.8</ele>
        <time>2024-05-07T11:55:01Z</time>
      </trkpt>
      <trkpt lat="47.57876" lon="-3.05205">
        <ele>10.8</ele>
        <time>2024-05-07T11:55:02Z</time>
      </trkpt>
      <trkpt lat="47.57876" lon="-3.05205">
        <ele>10.8</ele>
        <time>2024-05-07T11:55:03Z</time>
      </trkpt>
      <trkpt lat="47.57876" lon="-3.05205">
        <ele>10.8</ele>
        <time>2024-05-07T11:55:04Z</time>
      </trkpt>
      <trkpt lat="47.57876" lon="-3.05205">
        <ele>10.8</ele>
        <time>2024-05-07T11:55:05Z</time>
      </trkpt>
      <trkpt lat="47.57876" lon="-3.05205">
        <ele>11</ele>
        <time>2024-05-07T11:55:06Z</time>
      </trkpt>
      <trkpt lat="47.57876" lon="-3.05205">
        <ele>11</ele>
        <time>2024-05-07T11:55:07Z</time>
      </trkpt>
      <trkpt lat="47.57876" lon="-3.05205">
        <ele>11</ele>
        <time>2024-05-07T11:55:08Z</time>
      </trkpt>
      <trkpt lat="47.57876" lon="-3.05205">
        <ele>11</ele>
        <time>2024-05-07T11:55:09Z</time>
      </trkpt>
      <trkpt lat="47.57876" lon="-3.05205">
        <ele>11</ele>
        <time>2024-05-07T11:55:10Z</time>
      </trkpt>
      <trkpt lat="47.57876" lon="-3.05205">
        <ele>11</ele>
        <time>2024-05-07T11:55:11Z</time>
      </trkpt>
      <trkpt lat="47.57876" lon="-3.05205">
        <ele>11</ele>
        <time>2024-05-07T11:55:12Z</time>
      </trkpt>
      <trkpt lat="47.57877" lon="-3.05205">
        <ele>10.8</ele>
        <time>2024-05-07T11:55:13Z</time>
      </trkpt>
      <trkpt lat="47.57876" lon="-3.05206">
        <ele>10.8</ele>
        <time>2024-05-07T11:55:14Z</time>
      </trkpt>
      <trkpt lat="47.57876" lon="-3.05206">
        <ele>10.8</ele>
        <time>2024-05-07T11:55:15Z</time>
      </trkpt>
      <trkpt lat="47.57876" lon="-3.05206">
        <ele>10.8</ele>
        <time>2024-05-07T11:55:16Z</time>
      </trkpt>
      <trkpt lat="47.57876" lon="-3.05206">
        <ele>10.8</ele>
        <time>2024-05-07T11:55:17Z</time>
      </trkpt>
      <trkpt lat="47.57876" lon="-3.05206">
        <ele>10.8</ele>
        <time>2024-05-07T11:55:18Z</time>
      </trkpt>
      <trkpt lat="47.57876" lon="-3.05206">
        <ele>10.8</ele>
        <time>2024-05-07T11:55:19Z</time>
      </trkpt>
      <trkpt lat="47.57876" lon="-3.05206">
        <ele>10.8</ele>
        <time>2024-05-07T11:55:20Z</time>
      </trkpt>
      <trkpt lat="47.57876" lon="-3.05206">
        <ele>10.8</ele>
        <time>2024-05-07T11:55:21Z</time>
      </trkpt>
      <trkpt lat="47.57876" lon="-3.05206">
        <ele>10.8</ele>
        <time>2024-05-07T11:55:22Z</time>
      </trkpt>
      <trkpt lat="47.57876" lon="-3.05206">
        <ele>10.8</ele>
        <time>2024-05-07T11:55:23Z</time>
      </trkpt>
      <trkpt lat="47.57876" lon="-3.05206">
        <ele>10.8</ele>
        <time>2024-05-07T11:55:24Z</time>
      </trkpt>
      <trkpt lat="47.57876" lon="-3.05206">
        <ele>10.8</ele>
        <time>2024-05-07T11:55:25Z</time>
      </trkpt>
      <trkpt lat="47.57876" lon="-3.05206">
        <ele>10.8</ele>
        <time>2024-05-07T11:55:26Z</time>
      </trkpt>
      <trkpt lat="47.57876" lon="-3.05206">
        <ele>10.8</ele>
        <time>2024-05-07T11:55:27Z</time>
      </trkpt>
      <trkpt lat="47.57876" lon="-3.05206">
        <ele>10.8</ele>
        <time>2024-05-07T11:55:28Z</time>
      </trkpt>
      <trkpt lat="47.57876" lon="-3.05206">
        <ele>11</ele>
        <time>2024-05-07T11:55:29Z</time>
      </trkpt>
      <trkpt lat="47.57876" lon="-3.05206">
        <ele>11</ele>
        <time>2024-05-07T11:55:30Z</time>
      </trkpt>
      <trkpt lat="47.57876" lon="-3.05206">
        <ele>11</ele>
        <time>2024-05-07T11:55:31Z</time>
      </trkpt>
      <trkpt lat="47.57876" lon="-3.05206">
        <ele>11</ele>
        <time>2024-05-07T11:55:32Z</time>
      </trkpt>
      <trkpt lat="47.57876" lon="-3.05206">
        <ele>11</ele>
        <time>2024-05-07T11:55:33Z</time>
      </trkpt>
    </trkseg>
  </trk>
</gpx>